Terminal Aerodrome Forecast
Issued by NWS

Home | Current Version | Previous Version | Graphics & Text | Print | Product List | Glossary On
Versions: 1 2 3 4 5 6 7 8 9 10 11 12 13 14 15 16 17 18
000
FTUS43 KBIS 140500
TAFJMS
TAF
KJMS 140524Z 1406/1506 29009KT P6SM FEW080
     FM141500 31008KT P6SM SCT045
     FM142000 33007KT P6SM SCT060
     FM150300 VRB04KT P6SM SKC=

USA.gov is the U.S. government's official web portal to all federal, state and local government web resources and services.